sensor_id;sensor_type;location;lat;lon;timestamp;P1;durP1;ratioP1;P2;durP2;ratioP2
85154;SDS011;75523;53.218;6.564;2024-01-30T00:01:01;46.50;;;42.27;;
85154;SDS011;75523;53.218;6.564;2024-01-30T00:03:26;44.67;;;40.83;;
85154;SDS011;75523;53.218;6.564;2024-01-30T00:05:52;45.40;;;41.50;;
85154;SDS011;75523;53.218;6.564;2024-01-30T00:08:17;46.30;;;42.30;;
85154;SDS011;75523;53.218;6.564;2024-01-30T00:10:43;42.70;;;38.70;;
85154;SDS011;75523;53.218;6.564;2024-01-30T00:13:09;45.37;;;41.10;;
85154;SDS011;75523;53.218;6.564;2024-01-30T00:15:35;45.10;;;40.77;;
85154;SDS011;75523;53.218;6.564;2024-01-30T00:18:01;44.33;;;40.23;;
85154;SDS011;75523;53.218;6.564;2024-01-30T00:20:26;44.17;;;40.17;;
85154;SDS011;75523;53.218;6.564;2024-01-30T00:22:51;43.50;;;39.50;;
85154;SDS011;75523;53.218;6.564;2024-01-30T00:25:17;45.93;;;41.87;;
85154;SDS011;75523;53.218;6.564;2024-01-30T00:27:42;45.43;;;41.23;;
85154;SDS011;75523;53.218;6.564;2024-01-30T00:30:08;46.67;;;42.30;;
85154;SDS011;75523;53.218;6.564;2024-01-30T00:32:33;46.47;;;42.33;;
85154;SDS011;75523;53.218;6.564;2024-01-30T00:34:59;46.30;;;42.23;;
85154;SDS011;75523;53.218;6.564;2024-01-30T00:37:26;46.57;;;42.47;;
85154;SDS011;75523;53.218;6.564;2024-01-30T00:39:51;44.23;;;40.10;;
85154;SDS011;75523;53.218;6.564;2024-01-30T00:42:17;42.63;;;38.77;;
85154;SDS011;75523;53.218;6.564;2024-01-30T00:44:43;47.30;;;42.90;;
85154;SDS011;75523;53.218;6.564;2024-01-30T00:47:08;44.67;;;40.73;;
85154;SDS011;75523;53.218;6.564;2024-01-30T00:49:34;44.90;;;40.90;;
85154;SDS011;75523;53.218;6.564;2024-01-30T00:51:59;45.97;;;41.70;;
85154;SDS011;75523;53.218;6.564;2024-01-30T00:54:25;46.83;;;42.73;;
85154;SDS011;75523;53.218;6.564;2024-01-30T00:56:51;43.93;;;39.93;;
85154;SDS011;75523;53.218;6.564;2024-01-30T00:59:16;45.73;;;41.53;;
85154;SDS011;75523;53.218;6.564;2024-01-30T01:01:41;46.80;;;42.67;;
85154;SDS011;75523;53.218;6.564;2024-01-30T01:04:07;43.80;;;40.00;;
85154;SDS011;75523;53.218;6.564;2024-01-30T01:06:32;46.37;;;42.23;;
85154;SDS011;75523;53.218;6.564;2024-01-30T01:08:58;43.77;;;39.73;;
85154;SDS011;75523;53.218;6.564;2024-01-30T01:11:24;45.53;;;41.53;;
85154;SDS011;75523;53.218;6.564;2024-01-30T01:13:50;46.37;;;42.27;;
85154;SDS011;75523;53.218;6.564;2024-01-30T01:16:15;46.23;;;42.17;;
85154;SDS011;75523;53.218;6.564;2024-01-30T01:18:40;45.93;;;41.73;;
85154;SDS011;75523;53.218;6.564;2024-01-30T01:21:06;44.23;;;40.23;;
85154;SDS011;75523;53.218;6.564;2024-01-30T01:23:31;47.73;;;43.53;;
85154;SDS011;75523;53.218;6.564;2024-01-30T01:25:57;44.27;;;40.37;;
85154;SDS011;75523;53.218;6.564;2024-01-30T01:28:24;45.53;;;41.33;;
85154;SDS011;75523;53.218;6.564;2024-01-30T01:30:50;48.07;;;43.77;;
85154;SDS011;75523;53.218;6.564;2024-01-30T01:33:17;47.37;;;43.17;;
85154;SDS011;75523;53.218;6.564;2024-01-30T01:35:43;47.70;;;43.40;;
85154;SDS011;75523;53.218;6.564;2024-01-30T01:38:08;43.93;;;40.00;;
85154;SDS011;75523;53.218;6.564;2024-01-30T01:40:34;47.07;;;42.67;;
85154;SDS011;75523;53.218;6.564;2024-01-30T01:43:02;48.00;;;43.70;;
85154;SDS011;75523;53.218;6.564;2024-01-30T01:45:30;46.97;;;42.57;;
85154;SDS011;75523;53.218;6.564;2024-01-30T01:47:55;48.27;;;43.97;;
85154;SDS011;75523;53.218;6.564;2024-01-30T01:50:21;45.40;;;41.23;;
85154;SDS011;75523;53.218;6.564;2024-01-30T01:52:50;47.20;;;42.93;;
85154;SDS011;75523;53.218;6.564;2024-01-30T01:55:16;49.60;;;45.13;;
85154;SDS011;75523;53.218;6.564;2024-01-30T01:57:43;47.53;;;43.13;;
85154;SDS011;75523;53.218;6.564;2024-01-30T02:00:09;44.90;;;40.60;;
85154;SDS011;75523;53.218;6.564;2024-01-30T02:02:35;47.53;;;43.33;;
85154;SDS011;75523;53.218;6.564;2024-01-30T02:05:02;45.30;;;41.27;;
85154;SDS011;75523;53.218;6.564;2024-01-30T02:07:27;46.83;;;42.67;;
85154;SDS011;75523;53.218;6.564;2024-01-30T02:09:53;45.20;;;41.03;;
85154;SDS011;75523;53.218;6.564;2024-01-30T02:12:20;45.77;;;41.47;;
85154;SDS011;75523;53.218;6.564;2024-01-30T02:14:48;48.77;;;44.37;;
85154;SDS011;75523;53.218;6.564;2024-01-30T02:19:40;46.83;;;42.50;;
85154;SDS011;75523;53.218;6.564;2024-01-30T02:22:06;46.80;;;42.50;;
85154;SDS011;75523;53.218;6.564;2024-01-30T02:24:32;46.57;;;42.27;;
85154;SDS011;75523;53.218;6.564;2024-01-30T02:26:58;45.43;;;41.43;;
85154;SDS011;75523;53.218;6.564;2024-01-30T02:29:24;45.37;;;41.13;;
85154;SDS011;75523;53.218;6.564;2024-01-30T02:31:49;44.97;;;40.83;;
85154;SDS011;75523;53.218;6.564;2024-01-30T02:34:15;47.70;;;43.23;;
85154;SDS011;75523;53.218;6.564;2024-01-30T02:36:44;45.20;;;41.20;;
85154;SDS011;75523;53.218;6.564;2024-01-30T02:39:09;45.47;;;41.07;;
85154;SDS011;75523;53.218;6.564;2024-01-30T02:41:35;44.37;;;40.47;;
85154;SDS011;75523;53.218;6.564;2024-01-30T02:44:01;45.33;;;41.23;;
85154;SDS011;75523;53.218;6.564;2024-01-30T02:46:27;44.00;;;40.20;;
85154;SDS011;75523;53.218;6.564;2024-01-30T02:48:53;43.70;;;39.70;;
85154;SDS011;75523;53.218;6.564;2024-01-30T02:51:19;46.67;;;42.37;;
85154;SDS011;75523;53.218;6.564;2024-01-30T02:53:44;45.50;;;41.43;;
85154;SDS011;75523;53.218;6.564;2024-01-30T02:56:10;44.27;;;40.27;;
85154;SDS011;75523;53.218;6.564;2024-01-30T02:58:37;44.57;;;40.50;;
85154;SDS011;75523;53.218;6.564;2024-01-30T03:01:02;44.23;;;40.23;;
85154;SDS011;75523;53.218;6.564;2024-01-30T03:03:28;45.53;;;41.50;;
85154;SDS011;75523;53.218;6.564;2024-01-30T03:05:54;44.40;;;40.37;;
85154;SDS011;75523;53.218;6.564;2024-01-30T03:08:19;43.37;;;39.57;;
85154;SDS011;75523;53.218;6.564;2024-01-30T03:10:46;43.53;;;39.80;;
85154;SDS011;75523;53.218;6.564;2024-01-30T03:13:11;44.90;;;40.93;;
85154;SDS011;75523;53.218;6.564;2024-01-30T03:15:37;46.30;;;41.97;;
85154;SDS011;75523;53.218;6.564;2024-01-30T03:18:03;44.43;;;40.37;;
85154;SDS011;75523;53.218;6.564;2024-01-30T03:20:29;45.20;;;41.10;;
85154;SDS011;75523;53.218;6.564;2024-01-30T03:22:55;42.63;;;38.83;;
85154;SDS011;75523;53.218;6.564;2024-01-30T03:25:21;43.30;;;39.50;;
85154;SDS011;75523;53.218;6.564;2024-01-30T03:27:46;44.23;;;40.23;;
85154;SDS011;75523;53.218;6.564;2024-01-30T03:30:12;44.53;;;40.63;;
85154;SDS011;75523;53.218;6.564;2024-01-30T03:32:37;43.37;;;39.40;;
85154;SDS011;75523;53.218;6.564;2024-01-30T03:35:03;43.37;;;39.40;;
85154;SDS011;75523;53.218;6.564;2024-01-30T03:37:29;42.67;;;38.87;;
85154;SDS011;75523;53.218;6.564;2024-01-30T03:39:55;43.43;;;39.60;;
85154;SDS011;75523;53.218;6.564;2024-01-30T03:42:20;43.33;;;39.50;;
85154;SDS011;75523;53.218;6.564;2024-01-30T03:44:47;41.10;;;37.30;;
85154;SDS011;75523;53.218;6.564;2024-01-30T03:47:13;45.47;;;41.20;;
85154;SDS011;75523;53.218;6.564;2024-01-30T03:49:38;42.50;;;38.80;;
85154;SDS011;75523;53.218;6.564;2024-01-30T03:52:04;41.90;;;38.17;;
85154;SDS011;75523;53.218;6.564;2024-01-30T03:54:29;41.53;;;37.77;;
85154;SDS011;75523;53.218;6.564;2024-01-30T03:56:55;42.63;;;38.83;;
85154;SDS011;75523;53.218;6.564;2024-01-30T03:59:20;43.87;;;39.87;;
85154;SDS011;75523;53.218;6.564;2024-01-30T04:01:52;40.97;;;37.42;;
85154;SDS011;75523;53.218;6.564;2024-01-30T04:04:18;41.10;;;37.57;;
85154;SDS011;75523;53.218;6.564;2024-01-30T04:06:44;39.50;;;35.90;;
85154;SDS011;75523;53.218;6.564;2024-01-30T04:09:10;40.33;;;36.67;;
85154;SDS011;75523;53.218;6.564;2024-01-30T04:11:36;40.90;;;37.30;;
85154;SDS011;75523;53.218;6.564;2024-01-30T04:14:01;43.17;;;39.47;;
85154;SDS011;75523;53.218;6.564;2024-01-30T04:16:27;40.57;;;36.97;;
85154;SDS011;75523;53.218;6.564;2024-01-30T04:18:53;41.20;;;37.77;;
85154;SDS011;75523;53.218;6.564;2024-01-30T04:21:20;40.60;;;37.03;;
85154;SDS011;75523;53.218;6.564;2024-01-30T04:23:46;42.67;;;39.07;;
85154;SDS011;75523;53.218;6.564;2024-01-30T04:26:12;40.83;;;37.30;;
85154;SDS011;75523;53.218;6.564;2024-01-30T04:28:37;42.47;;;38.87;;
85154;SDS011;75523;53.218;6.564;2024-01-30T04:31:03;40.97;;;37.40;;
85154;SDS011;75523;53.218;6.564;2024-01-30T04:33:28;40.23;;;36.83;;
85154;SDS011;75523;53.218;6.564;2024-01-30T04:35:54;38.73;;;35.23;;
85154;SDS011;75523;53.218;6.564;2024-01-30T04:38:19;39.13;;;35.63;;
85154;SDS011;75523;53.218;6.564;2024-01-30T04:40:45;38.00;;;34.73;;
85154;SDS011;75523;53.218;6.564;2024-01-30T04:43:11;39.33;;;35.73;;
85154;SDS011;75523;53.218;6.564;2024-01-30T04:45:36;38.93;;;35.63;;
85154;SDS011;75523;53.218;6.564;2024-01-30T04:48:02;41.27;;;37.57;;
85154;SDS011;75523;53.218;6.564;2024-01-30T04:50:28;37.47;;;34.20;;
85154;SDS011;75523;53.218;6.564;2024-01-30T04:52:54;39.73;;;36.47;;
85154;SDS011;75523;53.218;6.564;2024-01-30T04:55:20;38.27;;;34.77;;
85154;SDS011;75523;53.218;6.564;2024-01-30T04:57:46;37.33;;;34.07;;
85154;SDS011;75523;53.218;6.564;2024-01-30T05:00:13;38.17;;;34.87;;
85154;SDS011;75523;53.218;6.564;2024-01-30T05:02:39;36.97;;;33.83;;
85154;SDS011;75523;53.218;6.564;2024-01-30T05:05:04;39.07;;;35.67;;
85154;SDS011;75523;53.218;6.564;2024-01-30T05:07:30;39.93;;;36.53;;
85154;SDS011;75523;53.218;6.564;2024-01-30T05:09:56;36.63;;;33.40;;
85154;SDS011;75523;53.218;6.564;2024-01-30T05:12:21;37.07;;;33.87;;
85154;SDS011;75523;53.218;6.564;2024-01-30T05:14:47;39.00;;;35.70;;
85154;SDS011;75523;53.218;6.564;2024-01-30T05:17:12;38.83;;;35.63;;
85154;SDS011;75523;53.218;6.564;2024-01-30T05:19:38;36.43;;;33.13;;
85154;SDS011;75523;53.218;6.564;2024-01-30T05:22:04;38.00;;;34.67;;
85154;SDS011;75523;53.218;6.564;2024-01-30T05:24:30;35.60;;;32.50;;
85154;SDS011;75523;53.218;6.564;2024-01-30T05:26:55;39.07;;;35.70;;
85154;SDS011;75523;53.218;6.564;2024-01-30T05:29:21;37.50;;;34.43;;
85154;SDS011;75523;53.218;6.564;2024-01-30T05:31:47;38.30;;;35.20;;
85154;SDS011;75523;53.218;6.564;2024-01-30T05:34:12;39.77;;;36.50;;
85154;SDS011;75523;53.218;6.564;2024-01-30T05:36:38;35.33;;;32.00;;
85154;SDS011;75523;53.218;6.564;2024-01-30T05:39:03;36.73;;;33.67;;
85154;SDS011;75523;53.218;6.564;2024-01-30T05:41:29;37.43;;;34.07;;
85154;SDS011;75523;53.218;6.564;2024-01-30T05:43:55;35.63;;;32.47;;
85154;SDS011;75523;53.218;6.564;2024-01-30T05:46:21;37.13;;;33.77;;
85154;SDS011;75523;53.218;6.564;2024-01-30T05:48:47;37.83;;;34.47;;
85154;SDS011;75523;53.218;6.564;2024-01-30T05:51:12;39.57;;;36.03;;
85154;SDS011;75523;53.218;6.564;2024-01-30T05:53:38;34.93;;;31.93;;
85154;SDS011;75523;53.218;6.564;2024-01-30T05:56:04;39.37;;;35.97;;
85154;SDS011;75523;53.218;6.564;2024-01-30T05:58:29;40.07;;;36.63;;
85154;SDS011;75523;53.218;6.564;2024-01-30T06:00:56;36.87;;;33.67;;
85154;SDS011;75523;53.218;6.564;2024-01-30T06:03:23;35.30;;;32.07;;
85154;SDS011;75523;53.218;6.564;2024-01-30T06:05:48;35.87;;;32.87;;
85154;SDS011;75523;53.218;6.564;2024-01-30T06:08:14;38.07;;;34.80;;
85154;SDS011;75523;53.218;6.564;2024-01-30T06:10:40;37.10;;;33.80;;
85154;SDS011;75523;53.218;6.564;2024-01-30T06:13:05;37.43;;;34.27;;
85154;SDS011;75523;53.218;6.564;2024-01-30T06:15:31;37.93;;;34.53;;
85154;SDS011;75523;53.218;6.564;2024-01-30T06:17:57;38.83;;;35.53;;
85154;SDS011;75523;53.218;6.564;2024-01-30T06:20:23;37.40;;;34.20;;
85154;SDS011;75523;53.218;6.564;2024-01-30T06:22:49;38.60;;;35.43;;
85154;SDS011;75523;53.218;6.564;2024-01-30T06:25:15;37.67;;;34.47;;
85154;SDS011;75523;53.218;6.564;2024-01-30T06:27:42;37.23;;;34.03;;
85154;SDS011;75523;53.218;6.564;2024-01-30T06:30:08;36.73;;;33.63;;
85154;SDS011;75523;53.218;6.564;2024-01-30T06:32:35;36.50;;;33.40;;
85154;SDS011;75523;53.218;6.564;2024-01-30T06:35:01;34.67;;;31.67;;
85154;SDS011;75523;53.218;6.564;2024-01-30T06:37:26;37.23;;;34.03;;
85154;SDS011;75523;53.218;6.564;2024-01-30T06:39:52;37.93;;;34.70;;
85154;SDS011;75523;53.218;6.564;2024-01-30T06:42:18;38.50;;;35.13;;
85154;SDS011;75523;53.218;6.564;2024-01-30T06:44:44;35.57;;;32.37;;
85154;SDS011;75523;53.218;6.564;2024-01-30T06:47:09;39.93;;;36.70;;
85154;SDS011;75523;53.218;6.564;2024-01-30T06:49:35;34.93;;;31.93;;
85154;SDS011;75523;53.218;6.564;2024-01-30T06:52:04;37.50;;;34.20;;
85154;SDS011;75523;53.218;6.564;2024-01-30T06:54:30;37.20;;;34.00;;
85154;SDS011;75523;53.218;6.564;2024-01-30T06:56:56;35.77;;;32.53;;
85154;SDS011;75523;53.218;6.564;2024-01-30T06:59:21;36.37;;;32.97;;
85154;SDS011;75523;53.218;6.564;2024-01-30T07:01:47;38.20;;;35.00;;
85154;SDS011;75523;53.218;6.564;2024-01-30T07:04:12;37.97;;;34.77;;
85154;SDS011;75523;53.218;6.564;2024-01-30T07:06:38;35.27;;;32.17;;
85154;SDS011;75523;53.218;6.564;2024-01-30T07:09:04;36.00;;;33.00;;
85154;SDS011;75523;53.218;6.564;2024-01-30T07:11:30;35.57;;;32.50;;
85154;SDS011;75523;53.218;6.564;2024-01-30T07:13:55;35.93;;;32.83;;
85154;SDS011;75523;53.218;6.564;2024-01-30T07:16:21;37.47;;;34.27;;
85154;SDS011;75523;53.218;6.564;2024-01-30T07:18:47;36.00;;;32.80;;
85154;SDS011;75523;53.218;6.564;2024-01-30T07:21:12;35.13;;;31.90;;
85154;SDS011;75523;53.218;6.564;2024-01-30T07:23:38;36.03;;;32.53;;
85154;SDS011;75523;53.218;6.564;2024-01-30T07:26:07;35.92;;;32.72;;
85154;SDS011;75523;53.218;6.564;2024-01-30T07:28:33;36.43;;;33.33;;
85154;SDS011;75523;53.218;6.564;2024-01-30T07:31:00;34.70;;;31.67;;
85154;SDS011;75523;53.218;6.564;2024-01-30T07:33:26;36.97;;;33.83;;
85154;SDS011;75523;53.218;6.564;2024-01-30T07:35:54;36.63;;;33.63;;
85154;SDS011;75523;53.218;6.564;2024-01-30T07:38:20;35.80;;;32.70;;
85154;SDS011;75523;53.218;6.564;2024-01-30T07:40:46;34.63;;;31.70;;
85154;SDS011;75523;53.218;6.564;2024-01-30T07:43:11;35.63;;;32.53;;
85154;SDS011;75523;53.218;6.564;2024-01-30T07:45:37;37.20;;;33.97;;
85154;SDS011;75523;53.218;6.564;2024-01-30T07:48:05;36.37;;;33.37;;
85154;SDS011;75523;53.218;6.564;2024-01-30T07:50:30;35.47;;;32.37;;
85154;SDS011;75523;53.218;6.564;2024-01-30T07:52:56;35.73;;;32.53;;
85154;SDS011;75523;53.218;6.564;2024-01-30T07:55:22;38.27;;;35.07;;
85154;SDS011;75523;53.218;6.564;2024-01-30T07:57:51;37.60;;;34.37;;
85154;SDS011;75523;53.218;6.564;2024-01-30T08:00:19;34.00;;;30.93;;
85154;SDS011;75523;53.218;6.564;2024-01-30T08:02:54;36.73;;;33.60;;
85154;SDS011;75523;53.218;6.564;2024-01-30T08:05:20;38.20;;;35.07;;
85154;SDS011;75523;53.218;6.564;2024-01-30T08:07:47;34.27;;;31.27;;
85154;SDS011;75523;53.218;6.564;2024-01-30T08:10:14;37.47;;;34.37;;
85154;SDS011;75523;53.218;6.564;2024-01-30T08:12:40;33.90;;;31.20;;
85154;SDS011;75523;53.218;6.564;2024-01-30T08:15:06;34.47;;;31.47;;
85154;SDS011;75523;53.218;6.564;2024-01-30T08:17:32;34.53;;;31.53;;
85154;SDS011;75523;53.218;6.564;2024-01-30T08:19:58;35.30;;;32.10;;
85154;SDS011;75523;53.218;6.564;2024-01-30T08:22:24;34.87;;;31.73;;
85154;SDS011;75523;53.218;6.564;2024-01-30T08:24:49;34.07;;;31.03;;
85154;SDS011;75523;53.218;6.564;2024-01-30T08:27:15;37.40;;;34.40;;
85154;SDS011;75523;53.218;6.564;2024-01-30T08:29:40;34.77;;;31.87;;
85154;SDS011;75523;53.218;6.564;2024-01-30T08:32:06;38.23;;;35.13;;
85154;SDS011;75523;53.218;6.564;2024-01-30T08:34:32;36.97;;;33.77;;
85154;SDS011;75523;53.218;6.564;2024-01-30T08:36:58;36.43;;;33.33;;
85154;SDS011;75523;53.218;6.564;2024-01-30T08:39:24;34.53;;;31.73;;
85154;SDS011;75523;53.218;6.564;2024-01-30T08:41:49;35.63;;;32.70;;
85154;SDS011;75523;53.218;6.564;2024-01-30T08:44:15;35.30;;;32.10;;
85154;SDS011;75523;53.218;6.564;2024-01-30T08:46:41;36.70;;;33.40;;
85154;SDS011;75523;53.218;6.564;2024-01-30T08:49:07;35.27;;;32.13;;
85154;SDS011;75523;53.218;6.564;2024-01-30T08:51:33;34.50;;;31.47;;
85154;SDS011;75523;53.218;6.564;2024-01-30T08:53:59;34.13;;;31.13;;
85154;SDS011;75523;53.218;6.564;2024-01-30T08:56:25;35.53;;;32.53;;
85154;SDS011;75523;53.218;6.564;2024-01-30T08:58:50;35.47;;;32.30;;
85154;SDS011;75523;53.218;6.564;2024-01-30T09:01:16;33.17;;;30.37;;
85154;SDS011;75523;53.218;6.564;2024-01-30T09:03:42;32.07;;;29.23;;
85154;SDS011;75523;53.218;6.564;2024-01-30T09:06:09;34.17;;;31.27;;
85154;SDS011;75523;53.218;6.564;2024-01-30T09:08:34;34.20;;;31.40;;
85154;SDS011;75523;53.218;6.564;2024-01-30T09:11:00;32.47;;;29.77;;
85154;SDS011;75523;53.218;6.564;2024-01-30T09:13:26;33.67;;;30.77;;
85154;SDS011;75523;53.218;6.564;2024-01-30T09:15:51;33.80;;;30.73;;
85154;SDS011;75523;53.218;6.564;2024-01-30T09:18:18;34.47;;;31.33;;
85154;SDS011;75523;53.218;6.564;2024-01-30T09:20:43;32.83;;;29.87;;
85154;SDS011;75523;53.218;6.564;2024-01-30T09:25:38;34.97;;;31.73;;
85154;SDS011;75523;53.218;6.564;2024-01-30T09:28:05;32.00;;;29.20;;
85154;SDS011;75523;53.218;6.564;2024-01-30T09:30:31;33.43;;;30.50;;
85154;SDS011;75523;53.218;6.564;2024-01-30T09:32:56;34.63;;;31.60;;
85154;SDS011;75523;53.218;6.564;2024-01-30T09:35:22;31.40;;;28.57;;
85154;SDS011;75523;53.218;6.564;2024-01-30T09:37:47;31.83;;;29.13;;
85154;SDS011;75523;53.218;6.564;2024-01-30T09:40:13;35.37;;;32.27;;
85154;SDS011;75523;53.218;6.564;2024-01-30T09:42:43;35.40;;;32.37;;
85154;SDS011;75523;53.218;6.564;2024-01-30T09:45:12;32.97;;;29.98;;
85154;SDS011;75523;53.218;6.564;2024-01-30T09:47:42;33.67;;;30.70;;
85154;SDS011;75523;53.218;6.564;2024-01-30T09:50:09;34.63;;;31.50;;
85154;SDS011;75523;53.218;6.564;2024-01-30T09:52:35;35.20;;;32.20;;
85154;SDS011;75523;53.218;6.564;2024-01-30T09:55:00;33.53;;;30.53;;
85154;SDS011;75523;53.218;6.564;2024-01-30T09:57:26;32.77;;;29.73;;
85154;SDS011;75523;53.218;6.564;2024-01-30T09:59:52;35.30;;;32.27;;
85154;SDS011;75523;53.218;6.564;2024-01-30T10:02:19;35.10;;;31.97;;
85154;SDS011;75523;53.218;6.564;2024-01-30T10:04:47;32.60;;;29.80;;
85154;SDS011;75523;53.218;6.564;2024-01-30T10:07:13;32.97;;;29.98;;
85154;SDS011;75523;53.218;6.564;2024-01-30T10:09:39;29.33;;;26.77;;
85154;SDS011;75523;53.218;6.564;2024-01-30T10:12:05;33.10;;;30.07;;
85154;SDS011;75523;53.218;6.564;2024-01-30T10:14:31;31.10;;;28.30;;
85154;SDS011;75523;53.218;6.564;2024-01-30T10:16:57;30.73;;;27.97;;
85154;SDS011;75523;53.218;6.564;2024-01-30T10:19:23;33.10;;;30.00;;
85154;SDS011;75523;53.218;6.564;2024-01-30T10:21:48;32.70;;;29.90;;
85154;SDS011;75523;53.218;6.564;2024-01-30T10:24:14;29.97;;;27.03;;
85154;SDS011;75523;53.218;6.564;2024-01-30T10:26:40;29.57;;;26.73;;
85154;SDS011;75523;53.218;6.564;2024-01-30T10:29:08;32.17;;;29.17;;
85154;SDS011;75523;53.218;6.564;2024-01-30T10:31:34;30.77;;;27.87;;
85154;SDS011;75523;53.218;6.564;2024-01-30T10:34:00;31.30;;;28.40;;
85154;SDS011;75523;53.218;6.564;2024-01-30T10:36:27;33.63;;;30.50;;
85154;SDS011;75523;53.218;6.564;2024-01-30T10:38:54;31.52;;;28.65;;
85154;SDS011;75523;53.218;6.564;2024-01-30T10:41:23;29.20;;;26.40;;
85154;SDS011;75523;53.218;6.564;2024-01-30T10:43:58;29.47;;;26.67;;
85154;SDS011;75523;53.218;6.564;2024-01-30T10:46:29;32.10;;;29.10;;
85154;SDS011;75523;53.218;6.564;2024-01-30T10:48:58;33.07;;;30.17;;
85154;SDS011;75523;53.218;6.564;2024-01-30T10:51:27;31.13;;;28.23;;
85154;SDS011;75523;53.218;6.564;2024-01-30T10:53:55;31.23;;;28.37;;
85154;SDS011;75523;53.218;6.564;2024-01-30T10:56:21;32.80;;;29.90;;
85154;SDS011;75523;53.218;6.564;2024-01-30T10:58:48;31.97;;;29.13;;
85154;SDS011;75523;53.218;6.564;2024-01-30T11:01:20;30.10;;;27.20;;
85154;SDS011;75523;53.218;6.564;2024-01-30T11:03:51;31.70;;;28.93;;
85154;SDS011;75523;53.218;6.564;2024-01-30T11:06:17;30.80;;;27.80;;
85154;SDS011;75523;53.218;6.564;2024-01-30T11:08:59;31.30;;;28.13;;
85154;SDS011;75523;53.218;6.564;2024-01-30T11:11:29;30.40;;;27.43;;
85154;SDS011;75523;53.218;6.564;2024-01-30T11:13:55;31.60;;;28.80;;
85154;SDS011;75523;53.218;6.564;2024-01-30T11:16:20;31.23;;;28.53;;
85154;SDS011;75523;53.218;6.564;2024-01-30T11:18:50;31.40;;;28.53;;
85154;SDS011;75523;53.218;6.564;2024-01-30T11:21:16;31.27;;;28.33;;
85154;SDS011;75523;53.218;6.564;2024-01-30T11:23:42;31.60;;;28.60;;
85154;SDS011;75523;53.218;6.564;2024-01-30T11:26:11;31.20;;;28.27;;
85154;SDS011;75523;53.218;6.564;2024-01-30T11:28:37;27.63;;;24.70;;
85154;SDS011;75523;53.218;6.564;2024-01-30T11:31:03;30.17;;;27.43;;
85154;SDS011;75523;53.218;6.564;2024-01-30T11:33:30;27.93;;;25.37;;
85154;SDS011;75523;53.218;6.564;2024-01-30T11:35:56;27.77;;;25.10;;
85154;SDS011;75523;53.218;6.564;2024-01-30T11:38:23;28.53;;;25.73;;
85154;SDS011;75523;53.218;6.564;2024-01-30T11:40:55;26.37;;;23.80;;
85154;SDS011;75523;53.218;6.564;2024-01-30T11:43:23;27.83;;;25.20;;
85154;SDS011;75523;53.218;6.564;2024-01-30T11:45:49;26.10;;;23.70;;
85154;SDS011;75523;53.218;6.564;2024-01-30T11:48:15;24.53;;;22.37;;
85154;SDS011;75523;53.218;6.564;2024-01-30T11:50:41;25.80;;;23.50;;
85154;SDS011;75523;53.218;6.564;2024-01-30T11:53:06;26.23;;;24.00;;
85154;SDS011;75523;53.218;6.564;2024-01-30T11:55:32;25.93;;;23.73;;
85154;SDS011;75523;53.218;6.564;2024-01-30T11:57:58;23.30;;;21.30;;
85154;SDS011;75523;53.218;6.564;2024-01-30T12:00:24;26.73;;;24.60;;
85154;SDS011;75523;53.218;6.564;2024-01-30T12:02:50;20.97;;;19.07;;
85154;SDS011;75523;53.218;6.564;2024-01-30T12:05:18;22.73;;;20.80;;
85154;SDS011;75523;53.218;6.564;2024-01-30T12:07:46;20.07;;;18.27;;
85154;SDS011;75523;53.218;6.564;2024-01-30T12:10:12;23.40;;;21.33;;
85154;SDS011;75523;53.218;6.564;2024-01-30T12:12:39;22.63;;;20.90;;
85154;SDS011;75523;53.218;6.564;2024-01-30T12:15:05;21.60;;;19.87;;
85154;SDS011;75523;53.218;6.564;2024-01-30T12:17:32;22.53;;;20.80;;
85154;SDS011;75523;53.218;6.564;2024-01-30T12:22:44;20.67;;;19.27;;
85154;SDS011;75523;53.218;6.564;2024-01-30T12:25:12;21.77;;;20.07;;
85154;SDS011;75523;53.218;6.564;2024-01-30T12:27:38;18.47;;;17.07;;
85154;SDS011;75523;53.218;6.564;2024-01-30T12:30:10;22.07;;;20.50;;
85154;SDS011;75523;53.218;6.564;2024-01-30T12:32:36;18.90;;;17.70;;
85154;SDS011;75523;53.218;6.564;2024-01-30T12:35:02;18.93;;;17.53;;
85154;SDS011;75523;53.218;6.564;2024-01-30T12:37:29;19.57;;;18.07;;
85154;SDS011;75523;53.218;6.564;2024-01-30T12:39:56;18.83;;;17.30;;
85154;SDS011;75523;53.218;6.564;2024-01-30T12:42:22;21.73;;;20.30;;
85154;SDS011;75523;53.218;6.564;2024-01-30T12:44:49;20.23;;;18.83;;
85154;SDS011;75523;53.218;6.564;2024-01-30T12:47:14;20.80;;;19.40;;
85154;SDS011;75523;53.218;6.564;2024-01-30T12:49:42;17.53;;;16.43;;
85154;SDS011;75523;53.218;6.564;2024-01-30T12:52:09;17.70;;;16.20;;
85154;SDS011;75523;53.218;6.564;2024-01-30T12:54:34;19.77;;;18.47;;
85154;SDS011;75523;53.218;6.564;2024-01-30T12:57:00;20.13;;;18.67;;
85154;SDS011;75523;53.218;6.564;2024-01-30T12:59:26;22.33;;;20.77;;
85154;SDS011;75523;53.218;6.564;2024-01-30T13:01:51;20.80;;;19.30;;
85154;SDS011;75523;53.218;6.564;2024-01-30T13:04:17;19.67;;;18.27;;
85154;SDS011;75523;53.218;6.564;2024-01-30T13:06:43;20.87;;;19.37;;
85154;SDS011;75523;53.218;6.564;2024-01-30T13:09:08;19.73;;;18.33;;
85154;SDS011;75523;53.218;6.564;2024-01-30T13:11:34;20.17;;;18.83;;
85154;SDS011;75523;53.218;6.564;2024-01-30T13:14:00;21.17;;;19.70;;
85154;SDS011;75523;53.218;6.564;2024-01-30T13:16:25;20.90;;;19.50;;
85154;SDS011;75523;53.218;6.564;2024-01-30T13:18:51;17.43;;;16.13;;
85154;SDS011;75523;53.218;6.564;2024-01-30T13:21:16;20.40;;;18.90;;
85154;SDS011;75523;53.218;6.564;2024-01-30T13:23:42;18.77;;;17.37;;
85154;SDS011;75523;53.218;6.564;2024-01-30T13:26:08;22.40;;;20.90;;
85154;SDS011;75523;53.218;6.564;2024-01-30T13:28:33;20.43;;;18.97;;
85154;SDS011;75523;53.218;6.564;2024-01-30T13:30:59;20.53;;;19.03;;
85154;SDS011;75523;53.218;6.564;2024-01-30T13:33:24;18.73;;;17.37;;
85154;SDS011;75523;53.218;6.564;2024-01-30T13:35:51;18.20;;;17.00;;
85154;SDS011;75523;53.218;6.564;2024-01-30T13:38:17;22.07;;;20.53;;
85154;SDS011;75523;53.218;6.564;2024-01-30T13:40:43;22.53;;;20.83;;
85154;SDS011;75523;53.218;6.564;2024-01-30T13:43:08;21.40;;;19.90;;
85154;SDS011;75523;53.218;6.564;2024-01-30T13:45:34;20.27;;;18.77;;
85154;SDS011;75523;53.218;6.564;2024-01-30T13:48:00;20.20;;;18.73;;
85154;SDS011;75523;53.218;6.564;2024-01-30T13:50:26;20.90;;;19.47;;
85154;SDS011;75523;53.218;6.564;2024-01-30T13:52:52;21.53;;;19.93;;
85154;SDS011;75523;53.218;6.564;2024-01-30T13:55:17;20.60;;;19.20;;
85154;SDS011;75523;53.218;6.564;2024-01-30T13:57:42;20.63;;;19.33;;
85154;SDS011;75523;53.218;6.564;2024-01-30T14:00:08;19.27;;;17.97;;
85154;SDS011;75523;53.218;6.564;2024-01-30T14:02:34;21.13;;;19.73;;
85154;SDS011;75523;53.218;6.564;2024-01-30T14:05:00;20.90;;;19.37;;
85154;SDS011;75523;53.218;6.564;2024-01-30T14:07:25;21.20;;;19.70;;
85154;SDS011;75523;53.218;6.564;2024-01-30T14:09:50;21.00;;;19.50;;
85154;SDS011;75523;53.218;6.564;2024-01-30T14:12:16;21.10;;;19.70;;
85154;SDS011;75523;53.218;6.564;2024-01-30T14:14:41;18.13;;;16.90;;
85154;SDS011;75523;53.218;6.564;2024-01-30T14:17:07;21.17;;;19.77;;
85154;SDS011;75523;53.218;6.564;2024-01-30T14:19:35;19.33;;;17.93;;
85154;SDS011;75523;53.218;6.564;2024-01-30T14:22:01;20.43;;;19.03;;